Time;durP1;ratioP1;P1;durP2;ratioP2;P2;SDS_P1;SDS_P2;PMS_P1;PMS_P2;Temp;Humidity;BMP_temperature;BMP_pressure;BME280_temperature;BME280_humidity;BME280_pressure;Samples;Min_cycle;Max_cycle;Signal;HPM_P1;HPM_P2
2022/03/06 00:00:33;;;;;;;0.90;0.90;;;;;;;;;;5047889;28;20175;-62
2022/03/06 00:02:59;;;;;;;0.90;0.90;;;;;;;;;;5044670;28;20427;-62
2022/03/06 00:05:25;;;;;;;0.82;0.82;;;;;;;;;;5049060;28;20582;-62
2022/03/06 00:07:51;;;;;;;0.80;0.80;;;;;;;;;;5037076;28;20283;-61
2022/03/06 00:10:17;;;;;;;0.90;0.90;;;;;;;;;;5041575;28;20431;-61
2022/03/06 00:12:43;;;;;;;0.90;0.90;;;;;;;;;;5061299;28;20176;-61
2022/03/06 00:15:09;;;;;;;0.70;0.70;;;;;;;;;;5032892;28;20181;-61
2022/03/06 00:17:35;;;;;;;0.77;0.77;;;;;;;;;;5049277;28;20445;-61
2022/03/06 00:20:02;;;;;;;1.00;1.00;;;;;;;;;;5038501;28;20189;-61
2022/03/06 00:22:29;;;;;;;0.82;0.82;;;;;;;;;;5037502;28;20542;-61
2022/03/06 00:24:57;;;;;;;1.20;1.20;;;;;;;;;;5048548;28;20208;-60
2022/03/06 00:27:23;;;;;;;0.80;0.80;;;;;;;;;;5057357;28;20196;-62
2022/03/06 00:29:49;;;;;;;0.90;0.90;;;;;;;;;;5032126;28;20181;-61
2022/03/06 00:32:15;;;;;;;1.05;1.05;;;;;;;;;;5042266;28;20842;-60
2022/03/06 00:34:42;;;;;;;0.80;0.80;;;;;;;;;;5046980;28;20181;-61
2022/03/06 00:37:08;;;;;;;0.70;0.70;;;;;;;;;;5034924;28;20889;-61
2022/03/06 00:39:34;;;;;;;0.90;0.90;;;;;;;;;;5041970;28;20263;-59
2022/03/06 00:42:01;;;;;;;0.80;0.80;;;;;;;;;;5058403;28;20779;-60
2022/03/06 00:44:27;;;;;;;0.80;0.80;;;;;;;;;;5042142;28;20207;-61
2022/03/06 00:46:53;;;;;;;0.90;0.90;;;;;;;;;;5043472;28;20223;-60
2022/03/06 00:49:19;;;;;;;1.00;1.00;;;;;;;;;;5051964;28;20212;-61
2022/03/06 00:51:45;;;;;;;0.90;0.90;;;;;;;;;;5048827;28;20893;-62
2022/03/06 00:54:11;;;;;;;1.00;1.00;;;;;;;;;;5039164;28;20331;-61
2022/03/06 00:56:37;;;;;;;1.20;1.20;;;;;;;;;;5042107;28;20180;-62
2022/03/06 00:59:03;;;;;;;1.23;1.23;;;;;;;;;;5053217;28;20438;-62
2022/03/06 01:01:29;;;;;;;1.10;1.10;;;;;;;;;;5030881;28;20191;-61
2022/03/06 01:03:54;;;;;;;1.00;1.00;;;;;;;;;;5029973;28;20231;-62
2022/03/06 01:06:20;;;;;;;1.07;1.07;;;;;;;;;;5037266;28;20422;-61
2022/03/06 01:08:46;;;;;;;1.20;1.20;;;;;;;;;;5033252;28;20486;-62
2022/03/06 01:11:12;;;;;;;0.80;0.80;;;;;;;;;;5047047;28;20423;-61
2022/03/06 01:13:38;;;;;;;1.10;1.10;;;;;;;;;;5040912;28;20205;-62
2022/03/06 01:16:04;;;;;;;1.10;1.10;;;;;;;;;;5051883;28;20422;-62
2022/03/06 01:18:30;;;;;;;1.05;1.05;;;;;;;;;;5041194;28;20580;-61
2022/03/06 01:20:56;;;;;;;0.90;0.90;;;;;;;;;;5051251;28;20628;-62
2022/03/06 01:23:22;;;;;;;1.00;1.00;;;;;;;;;;5043455;28;20465;-62
2022/03/06 01:25:48;;;;;;;1.30;1.30;;;;;;;;;;5035305;28;20279;-62
2022/03/06 01:28:14;;;;;;;1.00;1.00;;;;;;;;;;5050114;28;20196;-62
2022/03/06 01:30:40;;;;;;;0.93;0.93;;;;;;;;;;5052576;28;20179;-62
2022/03/06 01:33:06;;;;;;;1.10;1.10;;;;;;;;;;5056392;28;20960;-62
2022/03/06 01:35:32;;;;;;;1.37;1.37;;;;;;;;;;5036862;28;20438;-62
2022/03/06 01:37:58;;;;;;;1.00;1.00;;;;;;;;;;5058063;28;20433;-61
2022/03/06 01:40:24;;;;;;;1.67;1.67;;;;;;;;;;5056391;28;20207;-62
2022/03/06 01:42:50;;;;;;;1.00;1.00;;;;;;;;;;5049163;28;20172;-62
2022/03/06 01:45:17;;;;;;;1.20;1.20;;;;;;;;;;5038875;28;20350;-61
2022/03/06 01:47:45;;;;;;;1.33;1.33;;;;;;;;;;5051520;28;20197;-61
2022/03/06 01:50:21;;;;;;;1.30;1.30;;;;;;;;;;5047483;28;20521;-62
2022/03/06 01:52:48;;;;;;;1.10;1.10;;;;;;;;;;5035532;28;20254;-61
2022/03/06 01:55:15;;;;;;;1.05;1.05;;;;;;;;;;5021166;28;20242;-61
2022/03/06 01:57:41;;;;;;;1.30;1.30;;;;;;;;;;5030532;28;20231;-60
2022/03/06 02:00:09;;;;;;;0.98;0.98;;;;;;;;;;5030995;28;20196;-62
2022/03/06 02:02:35;;;;;;;1.30;1.30;;;;;;;;;;5037696;28;20200;-62
2022/03/06 02:05:01;;;;;;;1.30;1.30;;;;;;;;;;5069430;28;20234;-62
2022/03/06 02:07:27;;;;;;;1.70;1.70;;;;;;;;;;5046454;28;20483;-61
2022/03/06 02:09:54;;;;;;;1.17;1.17;;;;;;;;;;5038727;28;20614;-61
2022/03/06 02:12:23;;;;;;;1.20;1.20;;;;;;;;;;5034539;28;20173;-62
2022/03/06 02:14:50;;;;;;;1.27;1.27;;;;;;;;;;5038826;28;20258;-61
2022/03/06 02:17:16;;;;;;;1.20;1.20;;;;;;;;;;5045487;28;20203;-62
2022/03/06 02:19:57;;;;;;;1.20;1.20;;;;;;;;;;5062967;28;20237;-61
2022/03/06 02:22:23;;;;;;;1.45;1.45;;;;;;;;;;5047066;28;20211;-62
2022/03/06 02:24:50;;;;;;;1.30;1.30;;;;;;;;;;5039113;28;20206;-62
2022/03/06 02:27:16;;;;;;;1.25;1.25;;;;;;;;;;5053652;28;20287;-61
2022/03/06 02:29:43;;;;;;;1.20;1.20;;;;;;;;;;5048811;28;20183;-62
2022/03/06 02:32:09;;;;;;;1.38;1.38;;;;;;;;;;5048761;28;20525;-61
2022/03/06 02:34:36;;;;;;;1.30;1.30;;;;;;;;;;5040957;28;20279;-62
2022/03/06 02:37:02;;;;;;;1.10;1.10;;;;;;;;;;5057013;28;20687;-62
2022/03/06 02:39:28;;;;;;;1.30;1.30;;;;;;;;;;5045050;28;20829;-62
2022/03/06 02:41:54;;;;;;;1.30;1.30;;;;;;;;;;5050480;28;20192;-61
2022/03/06 02:44:21;;;;;;;1.20;1.20;;;;;;;;;;5065237;28;20555;-62
2022/03/06 02:46:47;;;;;;;1.10;1.10;;;;;;;;;;5055471;28;20423;-62
2022/03/06 02:49:13;;;;;;;1.13;1.13;;;;;;;;;;5046605;28;20183;-61
2022/03/06 02:51:41;;;;;;;1.00;1.00;;;;;;;;;;5045370;28;20548;-61
2022/03/06 02:54:07;;;;;;;1.13;1.13;;;;;;;;;;5058893;28;20175;-61
2022/03/06 02:56:33;;;;;;;0.90;0.90;;;;;;;;;;5048409;28;20189;-63
2022/03/06 02:58:58;;;;;;;1.77;1.77;;;;;;;;;;5038549;28;20678;-61
2022/03/06 03:01:25;;;;;;;1.13;1.13;;;;;;;;;;5045068;28;20434;-62
2022/03/06 03:03:51;;;;;;;1.08;1.08;;;;;;;;;;5042997;28;20432;-62
2022/03/06 03:06:17;;;;;;;0.90;0.90;;;;;;;;;;5049742;28;20206;-61
2022/03/06 03:08:46;;;;;;;1.20;1.20;;;;;;;;;;5048856;28;20211;-62
2022/03/06 03:11:12;;;;;;;0.90;0.90;;;;;;;;;;5033542;28;20183;-60
2022/03/06 03:13:38;;;;;;;0.90;0.90;;;;;;;;;;5043293;28;20184;-62
2022/03/06 03:16:04;;;;;;;1.00;1.00;;;;;;;;;;5045027;28;20438;-62
2022/03/06 03:18:30;;;;;;;1.00;1.00;;;;;;;;;;5045019;28;20447;-62
2022/03/06 03:20:56;;;;;;;0.90;0.90;;;;;;;;;;5042824;28;20257;-62
2022/03/06 03:23:22;;;;;;;0.87;0.87;;;;;;;;;;5067284;28;20429;-62
2022/03/06 03:25:48;;;;;;;0.82;0.82;;;;;;;;;;5060933;28;20461;-60
2022/03/06 03:28:14;;;;;;;0.70;0.70;;;;;;;;;;5064214;28;20690;-61
2022/03/06 03:30:40;;;;;;;0.90;0.90;;;;;;;;;;5033245;28;20935;-61
2022/03/06 03:33:06;;;;;;;0.80;0.80;;;;;;;;;;5033928;28;20760;-62
2022/03/06 03:35:31;;;;;;;0.80;0.80;;;;;;;;;;5042242;28;20184;-62
2022/03/06 03:37:57;;;;;;;0.80;0.80;;;;;;;;;;5063119;28;20478;-63
2022/03/06 03:40:23;;;;;;;1.20;1.20;;;;;;;;;;5059951;28;20473;-62
2022/03/06 03:42:49;;;;;;;0.80;0.80;;;;;;;;;;5044200;28;20426;-62
2022/03/06 03:45:15;;;;;;;0.80;0.80;;;;;;;;;;5039997;28;21037;-62
2022/03/06 03:47:41;;;;;;;0.88;0.88;;;;;;;;;;5038884;28;20466;-62
2022/03/06 03:50:08;;;;;;;1.08;1.08;;;;;;;;;;5057650;28;20826;-62
2022/03/06 03:52:34;;;;;;;1.02;1.02;;;;;;;;;;5047121;28;20259;-61
2022/03/06 03:55:01;;;;;;;1.10;1.10;;;;;;;;;;5036360;28;20296;-62
2022/03/06 03:57:27;;;;;;;1.10;1.10;;;;;;;;;;5033093;28;20726;-62
2022/03/06 03:59:53;;;;;;;0.80;0.80;;;;;;;;;;5038642;23;20229;-57
2022/03/06 04:02:19;;;;;;;0.70;0.70;;;;;;;;;;4995770;28;20532;-60
2022/03/06 04:04:45;;;;;;;1.05;1.05;;;;;;;;;;5021556;28;20243;-59
2022/03/06 04:07:11;;;;;;;2.03;2.00;;;;;;;;;;5032104;28;20173;-58
2022/03/06 04:09:37;;;;;;;1.63;1.63;;;;;;;;;;5011629;28;20448;-57
2022/03/06 04:12:03;;;;;;;2.23;2.13;;;;;;;;;;5012844;28;20428;-60
2022/03/06 04:14:29;;;;;;;4.80;4.70;;;;;;;;;;5012180;28;20436;-60
2022/03/06 04:16:55;;;;;;;2.35;2.25;;;;;;;;;;4994847;28;20265;-58
2022/03/06 04:19:21;;;;;;;6.43;6.17;;;;;;;;;;5021617;28;20667;-58
2022/03/06 04:21:47;;;;;;;5.45;5.32;;;;;;;;;;5011595;28;20425;-59
2022/03/06 04:24:13;;;;;;;7.80;7.50;;;;;;;;;;5011593;28;20200;-60
2022/03/06 04:26:39;;;;;;;5.90;5.80;;;;;;;;;;5011678;28;20939;-59
2022/03/06 04:29:05;;;;;;;5.53;5.32;;;;;;;;;;5011730;28;20943;-60
2022/03/06 04:31:31;;;;;;;2.27;2.17;;;;;;;;;;5020445;28;20185;-60
2022/03/06 04:33:57;;;;;;;2.45;2.38;;;;;;;;;;5013798;28;20419;-59
2022/03/06 04:36:23;;;;;;;6.03;5.83;;;;;;;;;;5011455;28;20178;-60
2022/03/06 04:38:49;;;;;;;5.22;5.03;;;;;;;;;;5011101;28;20456;-56
2022/03/06 04:41:16;;;;;;;5.70;5.50;;;;;;;;;;5011536;28;20561;-59
2022/03/06 04:43:42;;;;;;;7.80;7.40;;;;;;;;;;5010590;28;20428;-59
2022/03/06 04:46:08;;;;;;;1.77;1.77;;;;;;;;;;5025592;28;20200;-58
2022/03/06 04:48:34;;;;;;;3.05;2.95;;;;;;;;;;5010142;28;20197;-60
2022/03/06 04:50:59;;;;;;;1.60;1.60;;;;;;;;;;5011418;28;20711;-59
2022/03/06 04:53:25;;;;;;;2.22;2.15;;;;;;;;;;5011303;28;20224;-58
2022/03/06 04:55:51;;;;;;;1.67;1.67;;;;;;;;;;5010885;28;20556;-60
2022/03/06 04:58:17;;;;;;;2.93;2.83;;;;;;;;;;5012373;28;20217;-59
2022/03/06 05:00:43;;;;;;;1.98;1.98;;;;;;;;;;5019286;28;20511;-59
2022/03/06 05:03:09;;;;;;;2.13;2.07;;;;;;;;;;5014434;28;20177;-59
2022/03/06 05:05:35;;;;;;;2.00;2.00;;;;;;;;;;5004156;28;20461;-57
2022/03/06 05:08:01;;;;;;;1.97;1.97;;;;;;;;;;5007635;28;20549;-60
2022/03/06 05:10:27;;;;;;;1.80;1.80;;;;;;;;;;5010280;28;20734;-60
2022/03/06 05:12:53;;;;;;;1.90;1.90;;;;;;;;;;5011983;28;20432;-60
2022/03/06 05:15:19;;;;;;;1.83;1.83;;;;;;;;;;5010463;28;20512;-58
2022/03/06 05:17:45;;;;;;;1.60;1.60;;;;;;;;;;5011348;28;20428;-59
2022/03/06 05:20:12;;;;;;;2.83;2.73;;;;;;;;;;5010747;28;20454;-62
2022/03/06 05:22:38;;;;;;;2.58;2.47;;;;;;;;;;5010646;28;20492;-58
2022/03/06 05:25:05;;;;;;;2.10;2.10;;;;;;;;;;5009244;28;20197;-59
2022/03/06 05:27:31;;;;;;;2.47;2.38;;;;;;;;;;5014046;28;20255;-58
2022/03/06 05:29:57;;;;;;;2.40;2.30;;;;;;;;;;5016361;28;20228;-57
2022/03/06 05:32:22;;;;;;;2.20;2.17;;;;;;;;;;5011188;28;20452;-58
2022/03/06 05:34:48;;;;;;;1.60;1.60;;;;;;;;;;5006410;28;20425;-54
2022/03/06 05:37:14;;;;;;;2.30;2.20;;;;;;;;;;5010207;28;21201;-58
2022/03/06 05:39:40;;;;;;;3.10;3.00;;;;;;;;;;5009124;28;20471;-56
2022/03/06 05:42:06;;;;;;;3.63;3.43;;;;;;;;;;5026616;28;20431;-56
2022/03/06 05:44:32;;;;;;;1.60;1.60;;;;;;;;;;5010836;28;20573;-59
2022/03/06 05:46:58;;;;;;;2.55;2.45;;;;;;;;;;5010781;28;20680;-57
2022/03/06 05:49:24;;;;;;;2.40;2.30;;;;;;;;;;5010856;28;20216;-56
2022/03/06 05:51:50;;;;;;;3.70;3.60;;;;;;;;;;5010086;28;20420;-59
2022/03/06 05:54:16;;;;;;;3.23;3.13;;;;;;;;;;5009907;28;20618;-59
2022/03/06 05:56:42;;;;;;;2.40;2.30;;;;;;;;;;5016465;28;20489;-58
2022/03/06 05:59:08;;;;;;;2.10;2.00;;;;;;;;;;5010633;28;20208;-59
2022/03/06 06:01:34;;;;;;;2.22;2.13;;;;;;;;;;5009619;28;20425;-58
2022/03/06 06:04:00;;;;;;;1.65;1.65;;;;;;;;;;5010282;28;20243;-59
2022/03/06 06:06:27;;;;;;;2.25;2.20;;;;;;;;;;5010499;28;20185;-58
2022/03/06 06:08:54;;;;;;;1.40;1.40;;;;;;;;;;5010838;28;20204;-59
2022/03/06 06:11:20;;;;;;;1.83;1.83;;;;;;;;;;5010483;28;20201;-59
2022/03/06 06:13:46;;;;;;;2.43;2.33;;;;;;;;;;5009920;28;20228;-56
2022/03/06 06:16:12;;;;;;;1.55;1.55;;;;;;;;;;5010695;28;20451;-59
2022/03/06 06:18:38;;;;;;;6.00;5.70;;;;;;;;;;5008055;28;20595;-57
2022/03/06 06:21:04;;;;;;;3.93;3.73;;;;;;;;;;5007046;28;20280;-60
2022/03/06 06:23:30;;;;;;;2.63;2.53;;;;;;;;;;5002982;28;20444;-59
2022/03/06 06:25:56;;;;;;;2.50;2.40;;;;;;;;;;5006580;28;20212;-59
2022/03/06 06:28:22;;;;;;;1.85;1.85;;;;;;;;;;5008704;28;20691;-58
2022/03/06 06:30:48;;;;;;;2.28;2.17;;;;;;;;;;5007826;28;20265;-57
2022/03/06 06:33:14;;;;;;;1.33;1.33;;;;;;;;;;5008780;28;20880;-59
2022/03/06 06:35:40;;;;;;;2.97;2.88;;;;;;;;;;5008232;28;20494;-59
2022/03/06 06:38:06;;;;;;;1.00;1.00;;;;;;;;;;5008346;28;20246;-58
2022/03/06 06:40:32;;;;;;;0.80;0.80;;;;;;;;;;5007487;28;20444;-59
2022/03/06 06:42:58;;;;;;;0.80;0.80;;;;;;;;;;5007184;28;20460;-58
2022/03/06 06:45:24;;;;;;;0.80;0.80;;;;;;;;;;5005756;28;20240;-57
2022/03/06 06:47:50;;;;;;;0.90;0.90;;;;;;;;;;5006480;28;20432;-59
2022/03/06 06:50:16;;;;;;;0.87;0.87;;;;;;;;;;5005618;28;20891;-59
2022/03/06 06:52:42;;;;;;;0.80;0.80;;;;;;;;;;5008781;28;20904;-59
2022/03/06 06:55:08;;;;;;;0.70;0.70;;;;;;;;;;5009945;28;20201;-58
2022/03/06 06:57:34;;;;;;;0.85;0.85;;;;;;;;;;5009788;28;20182;-58
2022/03/06 07:00:02;;;;;;;0.80;0.80;;;;;;;;;;5006776;28;20581;-59
2022/03/06 07:02:28;;;;;;;0.70;0.70;;;;;;;;;;5008135;28;20262;-56
2022/03/06 07:04:54;;;;;;;0.80;0.80;;;;;;;;;;5007489;28;20289;-58
2022/03/06 07:07:20;;;;;;;0.70;0.70;;;;;;;;;;5017045;28;20427;-60
2022/03/06 07:09:46;;;;;;;0.70;0.70;;;;;;;;;;5012702;28;20212;-60
2022/03/06 07:12:12;;;;;;;0.80;0.80;;;;;;;;;;5006970;28;20218;-59
2022/03/06 07:14:38;;;;;;;1.00;1.00;;;;;;;;;;4998917;28;20485;-60
2022/03/06 07:17:04;;;;;;;0.80;0.80;;;;;;;;;;5003750;28;21013;-60
2022/03/06 07:19:30;;;;;;;0.70;0.70;;;;;;;;;;5004494;28;20205;-56
2022/03/06 07:21:56;;;;;;;1.00;1.00;;;;;;;;;;5009334;28;20189;-60
2022/03/06 07:24:22;;;;;;;0.80;0.80;;;;;;;;;;5008366;28;21554;-60
2022/03/06 07:26:48;;;;;;;0.87;0.87;;;;;;;;;;5005920;28;20444;-58
2022/03/06 07:29:14;;;;;;;0.80;0.80;;;;;;;;;;5009367;28;20611;-60
2022/03/06 07:31:40;;;;;;;0.90;0.90;;;;;;;;;;5010748;28;20440;-61
2022/03/06 07:34:06;;;;;;;1.00;1.00;;;;;;;;;;5009874;28;20435;-61
2022/03/06 07:36:32;;;;;;;0.85;0.85;;;;;;;;;;5009754;28;20428;-57
2022/03/06 07:38:58;;;;;;;0.80;0.80;;;;;;;;;;5011005;28;20194;-60
2022/03/06 07:41:23;;;;;;;0.70;0.70;;;;;;;;;;5012426;28;20438;-60
2022/03/06 07:43:49;;;;;;;0.97;0.97;;;;;;;;;;5010615;28;20515;-60
2022/03/06 07:46:15;;;;;;;0.80;0.80;;;;;;;;;;5006407;28;20530;-59
2022/03/06 07:48:41;;;;;;;1.20;1.20;;;;;;;;;;5010203;28;20464;-58
2022/03/06 07:51:07;;;;;;;1.33;1.33;;;;;;;;;;5009956;28;20912;-58
2022/03/06 07:53:33;;;;;;;0.90;0.90;;;;;;;;;;5010598;28;20468;-61
2022/03/06 07:55:59;;;;;;;1.00;1.00;;;;;;;;;;5005482;28;20727;-59
2022/03/06 07:58:25;;;;;;;1.00;1.00;;;;;;;;;;5006905;28;20479;-60
2022/03/06 08:00:51;;;;;;;1.10;1.10;;;;;;;;;;5010490;28;20526;-61
2022/03/06 08:03:17;;;;;;;1.73;1.73;;;;;;;;;;5013566;28;20923;-60
2022/03/06 08:05:43;;;;;;;1.50;1.50;;;;;;;;;;5007304;28;20875;-58
2022/03/06 08:08:09;;;;;;;1.38;1.38;;;;;;;;;;5009175;28;20440;-58
2022/03/06 08:10:35;;;;;;;1.00;1.00;;;;;;;;;;5007906;28;20188;-59
2022/03/06 08:13:01;;;;;;;1.10;1.10;;;;;;;;;;5009417;28;20528;-57
2022/03/06 08:15:27;;;;;;;1.60;1.60;;;;;;;;;;5013880;28;20491;-57
2022/03/06 08:17:53;;;;;;;1.75;1.75;;;;;;;;;;5010548;28;20429;-59
2022/03/06 08:20:19;;;;;;;1.30;1.30;;;;;;;;;;5009670;28;20209;-60
2022/03/06 08:22:45;;;;;;;1.00;1.00;;;;;;;;;;5011432;28;20444;-58
2022/03/06 08:25:11;;;;;;;0.90;0.90;;;;;;;;;;5012448;28;20478;-58
2022/03/06 08:27:37;;;;;;;1.57;1.57;;;;;;;;;;5010405;28;20443;-60
2022/03/06 08:30:04;;;;;;;1.37;1.37;;;;;;;;;;5010601;28;20459;-59
2022/03/06 08:32:30;;;;;;;1.65;1.65;;;;;;;;;;5008842;28;20479;-56
2022/03/06 08:34:56;;;;;;;1.30;1.30;;;;;;;;;;5009341;28;20420;-59
2022/03/06 08:37:22;;;;;;;2.33;2.25;;;;;;;;;;5008332;28;20931;-59
2022/03/06 08:39:48;;;;;;;1.47;1.47;;;;;;;;;;5016789;28;20289;-58
2022/03/06 08:42:15;;;;;;;1.42;1.42;;;;;;;;;;5007621;28;20439;-60
2022/03/06 08:44:41;;;;;;;2.95;2.85;;;;;;;;;;5007704;28;20200;-61
2022/03/06 08:47:07;;;;;;;1.70;1.70;;;;;;;;;;5008096;28;20188;-60
2022/03/06 08:49:33;;;;;;;0.80;0.80;;;;;;;;;;5011086;28;20247;-60
2022/03/06 08:51:59;;;;;;;1.77;1.77;;;;;;;;;;5011507;28;20324;-60
2022/03/06 08:54:25;;;;;;;1.20;1.20;;;;;;;;;;5011310;28;20175;-61
2022/03/06 08:56:51;;;;;;;1.40;1.40;;;;;;;;;;5011915;28;20458;-61
2022/03/06 08:59:20;;;;;;;1.60;1.60;;;;;;;;;;5012311;28;20688;-60
2022/03/06 09:01:47;;;;;;;1.10;1.10;;;;;;;;;;5011727;28;20439;-61
2022/03/06 09:04:13;;;;;;;0.95;0.95;;;;;;;;;;5011893;28;20240;-61
2022/03/06 09:06:40;;;;;;;1.80;1.80;;;;;;;;;;5012450;28;20170;-60
2022/03/06 09:09:06;;;;;;;0.80;0.80;;;;;;;;;;5012026;28;20193;-61
2022/03/06 09:11:32;;;;;;;1.00;1.00;;;;;;;;;;5011798;28;20232;-61
2022/03/06 09:13:59;;;;;;;0.70;0.70;;;;;;;;;;5011561;28;20428;-61
2022/03/06 09:16:25;;;;;;;0.75;0.75;;;;;;;;;;5011818;28;20177;-62
2022/03/06 09:18:51;;;;;;;0.90;0.90;;;;;;;;;;5011785;28;20283;-61
2022/03/06 09:21:17;;;;;;;0.83;0.83;;;;;;;;;;5011687;28;20919;-61
2022/03/06 09:23:43;;;;;;;0.70;0.70;;;;;;;;;;5012590;28;20838;-59
2022/03/06 09:26:10;;;;;;;0.93;0.93;;;;;;;;;;4994583;28;20494;-61
2022/03/06 09:28:36;;;;;;;0.60;0.60;;;;;;;;;;5011591;28;20716;-59
2022/03/06 09:31:02;;;;;;;0.60;0.60;;;;;;;;;;5011644;28;21018;-61
2022/03/06 09:33:28;;;;;;;0.63;0.63;;;;;;;;;;5012181;28;20772;-59
2022/03/06 09:35:54;;;;;;;0.60;0.60;;;;;;;;;;5011503;28;20424;-59
2022/03/06 09:38:20;;;;;;;0.80;0.80;;;;;;;;;;4994352;28;20934;-60
2022/03/06 09:40:46;;;;;;;0.83;0.83;;;;;;;;;;5011706;28;20487;-59
2022/03/06 09:43:16;;;;;;;0.67;0.67;;;;;;;;;;5013246;28;20496;-62
2022/03/06 09:45:43;;;;;;;0.60;0.60;;;;;;;;;;5012480;28;20434;-59
2022/03/06 09:48:11;;;;;;;0.80;0.80;;;;;;;;;;5011759;28;20480;-59
2022/03/06 09:50:36;;;;;;;0.57;0.57;;;;;;;;;;5011915;28;20830;-61
2022/03/06 09:53:03;;;;;;;0.60;0.60;;;;;;;;;;5011595;28;20429;-61
2022/03/06 09:55:30;;;;;;;0.87;0.87;;;;;;;;;;5012167;28;20991;-60
2022/03/06 09:57:57;;;;;;;1.43;1.43;;;;;;;;;;5011655;28;20425;-60
2022/03/06 10:00:23;;;;;;;1.60;1.60;;;;;;;;;;5049150;23;20857;-62
2022/03/06 10:02:53;;;;;;;0.77;0.77;;;;;;;;;;5030666;28;20415;-62
2022/03/06 10:05:36;;;;;;;0.50;0.50;;;;;;;;;;5031542;28;20459;-62
2022/03/06 10:08:16;;;;;;;0.50;0.50;;;;;;;;;;5031051;28;20427;-63
2022/03/06 10:10:42;;;;;;;0.50;0.50;;;;;;;;;;5030338;28;20436;-62
2022/03/06 10:13:17;;;;;;;0.50;0.50;;;;;;;;;;5030072;28;20489;-62
2022/03/06 10:16:01;;;;;;;0.60;0.60;;;;;;;;;;5031442;28;20976;-62
2022/03/06 10:18:35;;;;;;;0.90;0.90;;;;;;;;;;5031245;28;20385;-63
2022/03/06 10:21:21;;;;;;;0.70;0.70;;;;;;;;;;5030807;28;20519;-62
2022/03/06 10:23:49;;;;;;;0.50;0.50;;;;;;;;;;5031166;28;20491;-62
2022/03/06 10:26:16;;;;;;;0.60;0.60;;;;;;;;;;5032206;28;20962;-62
2022/03/06 10:28:44;;;;;;;0.63;0.63;;;;;;;;;;5034463;28;20509;-62
2022/03/06 10:31:10;;;;;;;0.60;0.60;;;;;;;;;;5034827;28;20508;-62
2022/03/06 10:33:36;;;;;;;0.70;0.70;;;;;;;;;;5035068;28;20203;-62
2022/03/06 10:36:02;;;;;;;0.65;0.65;;;;;;;;;;5034906;28;20979;-62
2022/03/06 10:38:32;;;;;;;0.50;0.50;;;;;;;;;;5035095;28;20178;-62
2022/03/06 10:41:03;;;;;;;0.70;0.70;;;;;;;;;;5034630;28;20674;-62
2022/03/06 10:43:30;;;;;;;0.57;0.57;;;;;;;;;;5034514;28;20177;-61
2022/03/06 10:46:08;;;;;;;1.08;1.08;;;;;;;;;;5034465;28;20205;-62
2022/03/06 10:48:34;;;;;;;1.30;1.30;;;;;;;;;;5035059;28;20238;-61
2022/03/06 10:51:01;;;;;;;1.00;1.00;;;;;;;;;;5034412;28;20173;-61
2022/03/06 10:53:28;;;;;;;1.10;1.10;;;;;;;;;;5034715;28;20659;-62
2022/03/06 10:55:55;;;;;;;0.80;0.80;;;;;;;;;;5034405;28;20192;-62
2022/03/06 10:58:21;;;;;;;1.02;1.02;;;;;;;;;;5034315;28;20555;-62
2022/03/06 11:00:48;;;;;;;1.77;1.67;;;;;;;;;;5034148;28;20201;-61
2022/03/06 11:03:14;;;;;;;0.90;0.90;;;;;;;;;;5034515;28;20177;-62
2022/03/06 11:05:44;;;;;;;0.80;0.80;;;;;;;;;;5034464;28;20676;-62
2022/03/06 11:08:13;;;;;;;0.90;0.90;;;;;;;;;;5034108;28;20207;-62
2022/03/06 11:10:41;;;;;;;0.85;0.85;;;;;;;;;;5034065;28;20567;-62
2022/03/06 11:13:07;;;;;;;0.70;0.70;;;;;;;;;;5034195;28;20681;-61
2022/03/06 11:15:33;;;;;;;0.93;0.93;;;;;;;;;;5034397;28;20181;-62
2022/03/06 11:18:01;;;;;;;0.90;0.90;;;;;;;;;;5034252;28;20606;-61
2022/03/06 11:20:29;;;;;;;0.60;0.60;;;;;;;;;;5031464;28;20263;-62
2022/03/06 11:23:06;;;;;;;0.70;0.70;;;;;;;;;;5034191;28;20188;-64
2022/03/06 11:25:32;;;;;;;0.68;0.68;;;;;;;;;;5034193;28;20299;-64
2022/03/06 11:28:08;;;;;;;1.00;1.00;;;;;;;;;;5034072;28;20701;-62
2022/03/06 11:30:34;;;;;;;0.82;0.82;;;;;;;;;;5032975;28;20207;-62
2022/03/06 11:33:02;;;;;;;0.80;0.80;;;;;;;;;;5033982;28;20644;-62
2022/03/06 11:35:33;;;;;;;0.70;0.70;;;;;;;;;;5033993;28;20176;-62
2022/03/06 11:37:59;;;;;;;0.70;0.70;;;;;;;;;;5033276;28;20632;-62
2022/03/06 11:40:45;;;;;;;1.25;1.25;;;;;;;;;;5033631;28;20675;-62
2022/03/06 11:43:12;;;;;;;0.95;0.95;;;;;;;;;;5033212;28;20648;-62
2022/03/06 11:46:01;;;;;;;0.77;0.77;;;;;;;;;;5033568;28;20858;-62
2022/03/06 11:48:48;;;;;;;0.80;0.80;;;;;;;;;;5033610;28;20184;-62
2022/03/06 11:51:19;;;;;;;0.80;0.80;;;;;;;;;;5033261;28;20215;-62
2022/03/06 11:53:51;;;;;;;0.90;0.90;;;;;;;;;;5033774;28;20173;-62
2022/03/06 11:59:08;;;;;;;1.30;1.30;;;;;;;;;;5033044;28;20743;-62
2022/03/06 12:01:36;;;;;;;0.85;0.85;;;;;;;;;;5033224;28;20192;-62
2022/03/06 12:04:03;;;;;;;0.80;0.80;;;;;;;;;;5033398;28;20577;-62
2022/03/06 12:06:29;;;;;;;0.50;0.50;;;;;;;;;;5033482;28;20176;-62
2022/03/06 12:08:55;;;;;;;0.70;0.70;;;;;;;;;;5032660;28;20436;-62
2022/03/06 12:11:21;;;;;;;0.60;0.60;;;;;;;;;;5032711;28;20511;-62
2022/03/06 12:13:51;;;;;;;0.70;0.70;;;;;;;;;;5033191;28;20173;-63
2022/03/06 12:16:20;;;;;;;0.70;0.70;;;;;;;;;;5032846;28;20478;-62
2022/03/06 12:19:03;;;;;;;0.80;0.80;;;;;;;;;;5033087;28;20866;-62
2022/03/06 12:21:38;;;;;;;0.50;0.50;;;;;;;;;;5032211;28;20879;-62
2022/03/06 12:24:11;;;;;;;0.70;0.70;;;;;;;;;;5033166;28;20179;-62
2022/03/06 12:26:47;;;;;;;0.90;0.90;;;;;;;;;;5033016;28;20412;-62
2022/03/06 12:29:31;;;;;;;0.82;0.82;;;;;;;;;;5032994;28;20435;-62
2022/03/06 12:32:17;;;;;;;0.70;0.70;;;;;;;;;;5032245;28;20222;-62
2022/03/06 12:34:43;;;;;;;0.90;0.90;;;;;;;;;;5032718;28;20177;-62
2022/03/06 12:37:09;;;;;;;0.70;0.70;;;;;;;;;;5032820;28;20887;-62
2022/03/06 12:39:35;;;;;;;0.57;0.57;;;;;;;;;;5032684;28;20553;-62
2022/03/06 12:42:01;;;;;;;0.57;0.57;;;;;;;;;;5032481;28;20490;-62
2022/03/06 12:44:28;;;;;;;0.63;0.63;;;;;;;;;;5032038;28;20287;-62
2022/03/06 12:46:54;;;;;;;0.70;0.70;;;;;;;;;;5032656;28;20173;-62
2022/03/06 12:49:23;;;;;;;1.10;1.10;;;;;;;;;;5031400;28;20587;-62
2022/03/06 12:51:50;;;;;;;0.90;0.90;;;;;;;;;;5032062;28;20169;-62
2022/03/06 12:54:22;;;;;;;0.90;0.90;;;;;;;;;;5032546;28;20722;-62
2022/03/06 12:56:52;;;;;;;0.80;0.80;;;;;;;;;;5032198;28;20177;-62
2022/03/06 12:59:18;;;;;;;0.73;0.73;;;;;;;;;;5032171;28;20243;-62
2022/03/06 13:01:45;;;;;;;1.30;1.30;;;;;;;;;;5031484;28;20173;-62
2022/03/06 13:04:12;;;;;;;0.77;0.77;;;;;;;;;;5032245;28;20227;-62
2022/03/06 13:06:39;;;;;;;0.90;0.90;;;;;;;;;;5032499;28;20172;-62
2022/03/06 13:09:06;;;;;;;0.70;0.70;;;;;;;;;;5031526;28;20283;-62
2022/03/06 13:11:37;;;;;;;0.88;0.88;;;;;;;;;;5032014;28;20208;-62
2022/03/06 13:14:04;;;;;;;0.60;0.60;;;;;;;;;;5032157;28;20611;-62
2022/03/06 13:16:30;;;;;;;0.68;0.68;;;;;;;;;;5031721;28;20249;-62
2022/03/06 13:19:04;;;;;;;0.80;0.80;;;;;;;;;;5032100;28;20192;-62
2022/03/06 13:21:31;;;;;;;0.70;0.70;;;;;;;;;;5031287;28;20936;-62
2022/03/06 13:23:58;;;;;;;0.93;0.93;;;;;;;;;;5031979;28;20204;-62
2022/03/06 13:26:25;;;;;;;1.10;1.10;;;;;;;;;;5031835;28;20578;-62
2022/03/06 13:28:51;;;;;;;1.30;1.30;;;;;;;;;;5031412;28;20192;-62
2022/03/06 13:31:18;;;;;;;0.98;0.98;;;;;;;;;;5031694;28;20184;-62
2022/03/06 13:33:43;;;;;;;1.40;1.40;;;;;;;;;;5031431;28;20177;-62
2022/03/06 13:36:13;;;;;;;1.40;1.40;;;;;;;;;;5031794;28;20242;-62
2022/03/06 13:38:39;;;;;;;2.60;2.47;;;;;;;;;;5031676;28;20411;-62
2022/03/06 13:41:09;;;;;;;1.10;1.10;;;;;;;;;;5031502;28;20667;-62
2022/03/06 13:43:39;;;;;;;1.08;1.08;;;;;;;;;;5031006;28;20427;-62
2022/03/06 13:46:08;;;;;;;1.05;1.05;;;;;;;;;;5031608;28;20205;-62
2022/03/06 13:48:34;;;;;;;1.00;1.00;;;;;;;;;;5031651;28;20181;-62
2022/03/06 13:51:00;;;;;;;1.10;1.10;;;;;;;;;;5031321;28;20265;-63
2022/03/06 13:53:29;;;;;;;0.70;0.70;;;;;;;;;;5031302;28;20439;-64
2022/03/06 13:55:58;;;;;;;1.10;1.10;;;;;;;;;;5031157;28;20461;-62
2022/03/06 13:58:24;;;;;;;1.35;1.35;;;;;;;;;;5031276;28;20656;-62
2022/03/06 14:00:57;;;;;;;0.87;0.87;;;;;;;;;;5031287;28;20194;-62
2022/03/06 14:03:27;;;;;;;0.80;0.80;;;;;;;;;;5035294;28;20972;-61
2022/03/06 14:05:54;;;;;;;0.88;0.88;;;;;;;;;;5035581;28;20205;-64
2022/03/06 14:08:26;;;;;;;0.80;0.80;;;;;;;;;;5035511;28;20187;-62
2022/03/06 14:10:57;;;;;;;1.65;1.65;;;;;;;;;;5034151;28;20177;-62
2022/03/06 14:13:24;;;;;;;0.80;0.80;;;;;;;;;;5035555;28;20199;-62
2022/03/06 14:15:51;;;;;;;2.17;2.08;;;;;;;;;;5035279;28;20635;-64
2022/03/06 14:18:33;;;;;;;1.05;1.05;;;;;;;;;;5035055;28;20195;-64
2022/03/06 14:20:59;;;;;;;1.90;1.83;;;;;;;;;;5035030;28;20172;-64
2022/03/06 14:23:26;;;;;;;1.20;1.20;;;;;;;;;;5035306;28;20180;-64
2022/03/06 14:25:52;;;;;;;0.90;0.90;;;;;;;;;;5034965;28;20302;-64
2022/03/06 14:28:18;;;;;;;1.07;1.07;;;;;;;;;;5035426;28;20258;-64
2022/03/06 14:30:44;;;;;;;0.80;0.80;;;;;;;;;;5034618;28;20446;-64
2022/03/06 14:33:10;;;;;;;0.85;0.85;;;;;;;;;;5034386;28;20211;-64
2022/03/06 14:35:36;;;;;;;0.80;0.80;;;;;;;;;;5035193;28;20200;-64
2022/03/06 14:38:04;;;;;;;0.80;0.80;;;;;;;;;;5035104;28;20891;-64
2022/03/06 14:40:31;;;;;;;1.27;1.27;;;;;;;;;;5034352;28;20196;-62
2022/03/06 14:42:57;;;;;;;0.98;0.98;;;;;;;;;;5035003;28;20181;-64
2022/03/06 14:45:23;;;;;;;1.10;1.10;;;;;;;;;;5034955;28;20196;-64